createdAt,value
2023-03-13T00:01:48.679Z,96388.31
2023-03-13T00:04:15.353Z,96381.78
2023-03-13T00:06:42.431Z,96379.31
2023-03-13T00:09:11.512Z,96387.31
2023-03-13T00:11:38.558Z,96375.44
2023-03-13T00:14:06.846Z,96371.66
2023-03-13T00:16:39.593Z,96368.56
2023-03-13T00:19:08.147Z,96368.69
2023-03-13T00:21:37.450Z,96367.34
2023-03-13T00:24:04.529Z,96371.47
2023-03-13T00:26:32.182Z,96370.47
2023-03-13T00:28:59.419Z,96363.94
2023-03-13T00:31:30.433Z,96361.13
2023-03-13T00:34:03.737Z,96352.91
2023-03-13T00:36:34.934Z,96351.09
2023-03-13T00:39:02.642Z,96345.88
2023-03-13T00:41:31.238Z,96342.50
2023-03-13T00:43:58.492Z,96332.22
2023-03-13T00:46:27.568Z,96334.69
2023-03-13T00:48:55.074Z,96337.44
2023-03-13T00:51:23.898Z,96333.84
2023-03-13T00:54:04.989Z,96320.13
2023-03-13T00:56:31.512Z,96315.88
2023-03-13T00:59:00.878Z,96314.56
2023-03-13T01:01:33.534Z,96313.25
2023-03-13T01:04:19.847Z,96315.72
2023-03-13T01:06:46.267Z,96315.56
2023-03-13T01:09:15.566Z,96323.38
2023-03-13T01:11:43.571Z,96326.13
2023-03-13T01:14:13.926Z,96333.16
2023-03-13T01:16:40.872Z,96323.72
2023-03-13T01:19:13.263Z,96326.47
2023-03-13T01:21:46.625Z,96331.50
2023-03-13T01:24:13.845Z,96324.81
2023-03-13T01:26:40.650Z,96320.88
2023-03-13T01:29:07.368Z,96322.34
2023-03-13T01:31:38.934Z,96306.91
2023-03-13T01:34:06.428Z,96314.38
2023-03-13T01:36:36.386Z,96297.94
2023-03-13T01:39:02.986Z,96308.03
2023-03-13T01:41:39.725Z,96281.97
2023-03-13T01:44:21.060Z,96299.75
2023-03-13T01:46:47.697Z,96299.09
2023-03-13T01:49:22.520Z,96295.66
2023-03-13T01:52:01.595Z,96287.53
2023-03-13T01:54:45.857Z,96289.78
2023-03-13T01:57:19.147Z,96284.75
2023-03-13T02:00:10.105Z,96290.44
2023-03-13T02:02:38.109Z,96279.00
2023-03-13T02:05:06.955Z,96281.47
2023-03-13T02:07:43.307Z,96279.03
2023-03-13T02:10:10.899Z,96273.34
2023-03-13T02:12:40.124Z,96280.03
2023-03-13T02:15:13.681Z,96271.22
2023-03-13T02:17:42.602Z,96273.53
2023-03-13T02:20:11.123Z,96271.88
2023-03-13T02:22:57.565Z,96283.09
2023-03-13T02:25:24.043Z,96281.81
2023-03-13T02:28:05.590Z,96287.19
2023-03-13T02:30:33.618Z,96280.19
2023-03-13T02:33:01.525Z,96271.22
2023-03-13T02:35:30.276Z,96271.22
2023-03-13T02:38:01.532Z,96268.91
2023-03-13T02:40:31.008Z,96265.50
2023-03-13T02:43:02.948Z,96267.63
2023-03-13T02:45:29.392Z,96265.69
2023-03-13T02:47:55.865Z,96254.91
2023-03-13T02:50:23.467Z,96249.88
2023-03-13T02:52:58.697Z,96255.91
2023-03-13T02:55:29.937Z,96255.22
2023-03-13T02:57:56.542Z,96248.53
2023-03-13T03:00:30.932Z,96251.31
2023-03-13T03:02:57.470Z,96234.03
2023-03-13T03:05:25.052Z,96240.88
2023-03-13T03:07:51.833Z,96232.06
2023-03-13T03:10:19.342Z,96216.25
2023-03-13T03:12:45.879Z,96207.13
2023-03-13T03:15:12.824Z,96218.06
2023-03-13T03:17:39.458Z,96221.00
2023-03-13T03:20:12.036Z,96223.28
2023-03-13T03:22:40.788Z,96217.06
2023-03-13T03:25:09.186Z,96217.09
2023-03-13T03:27:36.481Z,96210.59
2023-03-13T03:30:06.653Z,96208.97
2023-03-13T03:32:33.120Z,96214.50
2023-03-13T03:34:59.602Z,96208.78
2023-03-13T03:37:29.435Z,96208.94
2023-03-13T03:40:07.065Z,96206.19
2023-03-13T03:42:34.135Z,96197.88
2023-03-13T03:45:00.641Z,96197.53
2023-03-13T03:47:27.288Z,96190.22
2023-03-13T03:49:53.780Z,96190.38
2023-03-13T03:52:20.465Z,96189.72
2023-03-13T03:54:47.007Z,96186.78
2023-03-13T03:57:13.454Z,96185.81
2023-03-13T03:59:39.918Z,96182.88
2023-03-13T04:02:06.403Z,96188.44
2023-03-13T04:04:33.164Z,96188.56
2023-03-13T04:06:59.614Z,96186.13
2023-03-13T04:09:26.059Z,96177.63
2023-03-13T04:11:52.477Z,96181.41
2023-03-13T04:14:19.009Z,96181.06
2023-03-13T04:16:45.902Z,96168.19
2023-03-13T04:19:13.469Z,96165.75
2023-03-13T04:21:48.198Z,96165.75
2023-03-13T04:24:14.760Z,96166.75
2023-03-13T04:26:52.414Z,96157.28
2023-03-13T04:29:20.092Z,96166.91
2023-03-13T04:31:46.551Z,96161.84
2023-03-13T04:34:17.245Z,96156.44
2023-03-13T04:36:43.681Z,96154.00
2023-03-13T04:39:10.118Z,96145.53
2023-03-13T04:41:47.914Z,96149.28
2023-03-13T04:44:14.440Z,96142.59
2023-03-13T04:46:42.010Z,96140.00
2023-03-13T04:49:08.979Z,96135.56
2023-03-13T04:51:35.638Z,96132.16
2023-03-13T04:54:02.110Z,96126.78
2023-03-13T04:56:42.269Z,96114.38
2023-03-13T04:59:12.480Z,96111.13
2023-03-13T05:01:39.842Z,96101.66
2023-03-13T05:04:06.939Z,96107.22
2023-03-13T05:06:33.414Z,96099.38
2023-03-13T05:08:59.876Z,96109.16
2023-03-13T05:11:26.315Z,96104.75
2023-03-13T05:13:52.778Z,96110.47
2023-03-13T05:16:26.576Z,96095.16
2023-03-13T05:18:56.055Z,96101.16
2023-03-13T05:21:24.607Z,96088.56
2023-03-13T05:23:59.297Z,96082.34
2023-03-13T05:26:42.865Z,96083.22
2023-03-13T05:29:09.304Z,96077.31
2023-03-13T05:31:42.871Z,96068.69
2023-03-13T05:34:09.325Z,96076.16
2023-03-13T05:36:45.709Z,96076.22
2023-03-13T05:39:12.525Z,96068.84
2023-03-13T05:41:38.952Z,96070.31
2023-03-13T05:44:14.773Z,96085.66
2023-03-13T05:46:41.320Z,96083.53
2023-03-13T05:49:22.609Z,96083.38
2023-03-13T05:51:49.038Z,96083.66
2023-03-13T05:54:15.725Z,96085.66
2023-03-13T05:56:42.212Z,96080.22
2023-03-13T05:59:08.645Z,96083.34
2023-03-13T06:01:35.165Z,96078.13
2023-03-13T06:04:01.935Z,96075.84
2023-03-13T06:06:28.767Z,96077.53
2023-03-13T06:08:55.368Z,96075.69
2023-03-13T06:11:21.845Z,96076.53
2023-03-13T06:13:57.500Z,96061.78
2023-03-13T06:16:24.040Z,96060.50
2023-03-13T06:18:51.151Z,96054.63
2023-03-13T06:21:17.616Z,96054.94
2023-03-13T06:23:47.210Z,96049.72
2023-03-13T06:26:13.893Z,96050.31
2023-03-13T06:28:40.392Z,96043.97
2023-03-13T06:31:08.163Z,96049.69
2023-03-13T06:33:40.489Z,96034.53
2023-03-13T06:36:07.317Z,96037.41
2023-03-13T06:38:36.891Z,96047.41
2023-03-13T06:41:03.483Z,96039.97
2023-03-13T06:43:40.935Z,96024.44
2023-03-13T06:46:09.021Z,96026.38
2023-03-13T06:48:38.519Z,96029.03
2023-03-13T06:51:05.106Z,96023.88
2023-03-13T06:53:32.600Z,96037.72
2023-03-13T06:56:01.937Z,96030.81
2023-03-13T06:58:32.377Z,96024.84
2023-03-13T07:01:19.887Z,96032.50
2023-03-13T07:03:48.185Z,96038.38
2023-03-13T07:06:15.089Z,96033.00
2023-03-13T07:08:41.535Z,96039.19
2023-03-13T07:11:09.967Z,96025.63
2023-03-13T07:13:37.131Z,96022.06
2023-03-13T07:16:05.979Z,96032.50
2023-03-13T07:18:34.103Z,96015.63
2023-03-13T07:21:05.122Z,96013.06
2023-03-13T07:23:32.959Z,96008.34
2023-03-13T07:26:01.558Z,96006.66
2023-03-13T07:28:30.858Z,95991.41
2023-03-13T07:31:10.345Z,96001.44
2023-03-13T07:33:36.967Z,96003.59
2023-03-13T07:36:04.021Z,96001.28
2023-03-13T07:38:36.703Z,96013.00
2023-03-13T07:41:04.203Z,96018.13
2023-03-13T07:43:31.518Z,96007.78
2023-03-13T07:45:59.306Z,96005.88
2023-03-13T07:48:30.329Z,96011.72
2023-03-13T07:50:57.611Z,96024.56
2023-03-13T07:53:24.460Z,96022.25
2023-03-13T07:55:57.060Z,96030.00
2023-03-13T07:58:24.621Z,96021.22
2023-03-13T08:00:51.530Z,96032.38
2023-03-13T08:03:18.256Z,96022.78
2023-03-13T08:05:44.798Z,96019.69
2023-03-13T08:08:20.414Z,96025.53
2023-03-13T08:10:46.830Z,96023.69
2023-03-13T08:13:19.524Z,96023.00
2023-03-13T08:15:45.954Z,96022.03
2023-03-13T08:18:12.371Z,96031.44
2023-03-13T08:20:38.780Z,96017.31
2023-03-13T08:23:09.423Z,96019.50
2023-03-13T08:25:35.869Z,96007.25
2023-03-13T08:28:02.647Z,96007.06
2023-03-13T08:30:29.162Z,96011.47
2023-03-13T08:32:55.660Z,95994.44
2023-03-13T08:35:22.138Z,95998.34
2023-03-13T08:37:48.560Z,95983.13
2023-03-13T08:40:15.236Z,95978.88
2023-03-13T08:42:41.638Z,95974.44
2023-03-13T08:45:09.696Z,95973.28
2023-03-13T08:47:36.275Z,95976.25
2023-03-13T08:50:05.021Z,95984.72
2023-03-13T08:52:31.535Z,95977.81
2023-03-13T08:54:57.997Z,95976.66
2023-03-13T08:57:24.557Z,95986.88
2023-03-13T08:59:51.621Z,95980.53
2023-03-13T09:02:21.116Z,95967.81
2023-03-13T09:04:48.579Z,95963.88
2023-03-13T09:07:15.165Z,95962.84
2023-03-13T09:09:41.709Z,95951.06
2023-03-13T09:12:15.501Z,95951.75
2023-03-13T09:14:48.255Z,95957.25
2023-03-13T09:17:15.689Z,95954.78
2023-03-13T09:19:54.271Z,95962.56
2023-03-13T09:22:28.018Z,95958.09
2023-03-13T09:24:54.446Z,95951.03
2023-03-13T09:27:20.851Z,95950.38
2023-03-13T09:29:47.326Z,95957.34
2023-03-13T09:32:20.484Z,95946.50
2023-03-13T09:34:47.441Z,95947.22
2023-03-13T09:37:13.932Z,95937.66
2023-03-13T09:39:40.353Z,95942.53
2023-03-13T09:42:17.802Z,95944.28
2023-03-13T09:44:59.566Z,95939.03
2023-03-13T09:47:37.505Z,95937.13
2023-03-13T09:50:25.550Z,95938.31
2023-03-13T09:52:57.749Z,95922.09
2023-03-13T09:55:32.769Z,95921.13
2023-03-13T09:58:19.952Z,95917.44
2023-03-13T10:01:00.838Z,95909.13
2023-03-13T10:03:44.775Z,95915.63
2023-03-13T10:06:19.683Z,95909.97
2023-03-13T10:08:46.218Z,95895.84
2023-03-13T10:11:34.942Z,95891.28
2023-03-13T10:14:04.317Z,95892.09
2023-03-13T10:16:54.542Z,95905.03
2023-03-13T10:19:51.468Z,95902.78
2023-03-13T10:22:26.549Z,95891.47
2023-03-13T10:24:59.302Z,95893.91
2023-03-13T10:27:25.894Z,95891.88
2023-03-13T10:29:52.546Z,95898.56
2023-03-13T10:32:21.161Z,95900.19
2023-03-13T10:35:00.544Z,95888.72
2023-03-13T10:37:45.285Z,95901.22
2023-03-13T10:40:25.027Z,95906.28
2023-03-13T10:43:01.046Z,95897.19
2023-03-13T10:45:32.487Z,95894.78
2023-03-13T10:48:03.618Z,95900.44
2023-03-13T10:50:34.221Z,95898.22
2023-03-13T10:53:24.488Z,95888.72
2023-03-13T10:55:57.824Z,95897.19
2023-03-13T10:58:37.367Z,95897.59
2023-03-13T11:01:17.932Z,95893.78
2023-03-13T11:03:46.432Z,95902.06
2023-03-13T11:06:35.192Z,95893.38
2023-03-13T11:09:12.093Z,95892.31
2023-03-13T11:11:51.452Z,95900.03
2023-03-13T11:14:23.425Z,95888.72
2023-03-13T11:17:02.964Z,95880.63
2023-03-13T11:19:38.860Z,95891.13
2023-03-13T11:22:30.493Z,95881.03
2023-03-13T11:24:59.934Z,95878.81
2023-03-13T11:27:43.029Z,95866.25
2023-03-13T11:30:42.222Z,95871.31
2023-03-13T11:33:40.657Z,95860.19
2023-03-13T11:36:25.948Z,95864.41
2023-03-13T11:39:12.100Z,95854.13
2023-03-13T11:42:01.657Z,95849.88
2023-03-13T11:44:59.113Z,95855.09
2023-03-13T11:47:51.823Z,95852.25
2023-03-13T11:50:35.325Z,95846.56
2023-03-13T11:53:16.703Z,95837.22
2023-03-13T11:56:01.922Z,95834.78
2023-03-13T11:58:59.312Z,95846.50
2023-03-13T12:01:38.020Z,95823.47
2023-03-13T12:04:18.995Z,95834.66
2023-03-13T12:07:06.597Z,95835.81
2023-03-13T12:09:57.152Z,95828.28
2023-03-13T12:12:26.476Z,95827.66
2023-03-13T12:15:06.094Z,95818.34
2023-03-13T12:18:10.788Z,95802.66
2023-03-13T12:21:12.326Z,95809.81
2023-03-13T12:23:38.739Z,95810.88
2023-03-13T12:26:12.273Z,95802.16
2023-03-13T12:29:02.572Z,95807.22
2023-03-13T12:31:38.394Z,95799.66
2023-03-13T12:34:04.820Z,95801.38
2023-03-13T12:36:38.557Z,95811.31
2023-03-13T12:39:18.049Z,95801.03
2023-03-13T12:41:54.598Z,95799.28
2023-03-13T12:44:21.114Z,95808.03
2023-03-13T12:47:31.184Z,95816.56
2023-03-13T12:50:22.508Z,95806.13
2023-03-13T12:53:03.953Z,95808.28
2023-03-13T12:56:00.248Z,95796.44
2023-03-13T12:58:45.208Z,95793.19
2023-03-13T13:01:38.173Z,95789.69
2023-03-13T13:04:15.316Z,95792.38
2023-03-13T13:07:00.542Z,95770.50
2023-03-13T13:09:30.715Z,95747.75
2023-03-13T13:12:23.693Z,95736.09
2023-03-13T13:14:50.206Z,95731.25
2023-03-13T13:17:25.852Z,95714.88
2023-03-13T13:19:52.376Z,95714.69
2023-03-13T13:22:36.610Z,95701.34
2023-03-13T13:25:18.137Z,95705.94
2023-03-13T13:27:46.955Z,95701.91
2023-03-13T13:30:19.476Z,95685.81
2023-03-13T13:32:56.220Z,95688.56
2023-03-13T13:35:24.520Z,95685.81
2023-03-13T13:37:51.536Z,95680.31
2023-03-13T13:40:23.493Z,95674.78
2023-03-13T13:43:00.403Z,95670.78
2023-03-13T13:45:30.877Z,95656.19
2023-03-13T13:48:18.048Z,95643.72
2023-03-13T13:51:20.430Z,95652.81
2023-03-13T13:53:46.856Z,95652.56
2023-03-13T13:56:34.062Z,95654.75
2023-03-13T13:59:25.417Z,95653.50
2023-03-13T14:02:14.962Z,95645.78
2023-03-13T14:04:51.213Z,95638.75
2023-03-13T14:07:29.111Z,95639.59
2023-03-13T14:10:05.938Z,95643.63
2023-03-13T14:12:38.306Z,95621.94
2023-03-13T14:15:30.655Z,95617.94
2023-03-13T14:18:01.369Z,95609.59
2023-03-13T14:20:59.039Z,95610.94
2023-03-13T14:23:39.981Z,95608.47
2023-03-13T14:26:14.266Z,95604.84
2023-03-13T14:28:43.290Z,95606.69
2023-03-13T14:31:22.824Z,95582.81
2023-03-13T14:33:49.919Z,95588.38
2023-03-13T14:36:16.365Z,95586.84
2023-03-13T14:38:52.887Z,95581.53
2023-03-13T14:41:32.556Z,95576.06
2023-03-13T14:44:26.525Z,95569.25
2023-03-13T14:46:59.286Z,95568.00
2023-03-13T14:49:31.720Z,95563.88
2023-03-13T14:52:25.630Z,95559.69
2023-03-13T14:55:06.684Z,95558.41
2023-03-13T14:57:34.781Z,95547.19
2023-03-13T15:00:31.400Z,95552.78
2023-03-13T15:03:21.672Z,95533.09
2023-03-13T15:06:16.869Z,95529.03
2023-03-13T15:08:49.203Z,95520.94
2023-03-13T15:11:30.160Z,95521.81
2023-03-13T15:13:58.719Z,95513.28
2023-03-13T15:16:26.762Z,95508.88
2023-03-13T15:18:54.528Z,95503.19
2023-03-13T15:21:27.437Z,95499.50
2023-03-13T15:23:58.572Z,95488.97
2023-03-13T15:26:25.368Z,95492.59
2023-03-13T15:28:52.975Z,95480.06
2023-03-13T15:31:25.179Z,95466.88
2023-03-13T15:33:56.928Z,95467.59
2023-03-13T15:36:23.422Z,95460.50
2023-03-13T15:38:51.730Z,95459.94
2023-03-13T15:41:19.787Z,95455.91
2023-03-13T15:43:48.308Z,95451.59
2023-03-13T15:46:15.070Z,95441.56
2023-03-13T15:48:48.266Z,95429.34
2023-03-13T15:51:18.875Z,95424.53
2023-03-13T15:53:46.256Z,95419.06
2023-03-13T15:56:15.128Z,95418.59
2023-03-13T15:58:42.243Z,95405.69
2023-03-13T16:01:12.955Z,95390.44
2023-03-13T16:03:41.126Z,95401.50
2023-03-13T16:06:16.916Z,95386.19
2023-03-13T16:08:43.810Z,95386.03
2023-03-13T16:11:13.609Z,95385.38
2023-03-13T16:13:40.229Z,95380.97
2023-03-13T16:16:18.327Z,95371.75
2023-03-13T16:18:45.222Z,95367.13
2023-03-13T16:21:18.829Z,95363.94
2023-03-13T16:23:45.351Z,95350.25
2023-03-13T16:26:18.027Z,95347.19
2023-03-13T16:28:45.119Z,95351.22
2023-03-13T16:31:27.739Z,95360.34
2023-03-13T16:33:55.825Z,95350.50
2023-03-13T16:36:25.249Z,95345.84
2023-03-13T16:38:52.452Z,95346.00
2023-03-13T16:41:22.027Z,95332.59
2023-03-13T16:43:51.176Z,95330.44
2023-03-13T16:46:20.569Z,95336.69
2023-03-13T16:48:48.369Z,95335.91
2023-03-13T16:51:23.832Z,95324.31
2023-03-13T16:53:53.364Z,95321.03
2023-03-13T16:56:38.214Z,95311.06
2023-03-13T16:59:08.665Z,95315.41
2023-03-13T17:01:35.493Z,95299.63
2023-03-13T17:04:02.114Z,95302.19
2023-03-13T17:06:32.920Z,95301.97
2023-03-13T17:09:01.549Z,95306.78
2023-03-13T17:11:29.684Z,95299.69
2023-03-13T17:13:56.443Z,95294.66
2023-03-13T17:16:32.166Z,95302.41
2023-03-13T17:19:08.378Z,95302.16
2023-03-13T17:21:36.586Z,95305.53
2023-03-13T17:24:03.274Z,95294.91
2023-03-13T17:26:35.013Z,95287.13
2023-03-13T17:29:04.384Z,95287.06
2023-03-13T17:31:39.838Z,95293.47
2023-03-13T17:34:07.487Z,95284.53
2023-03-13T17:36:34.845Z,95280.28
2023-03-13T17:39:04.450Z,95287.19
2023-03-13T17:41:32.858Z,95276.66
2023-03-13T17:44:07.705Z,95283.88
2023-03-13T17:46:42.309Z,95275.16
2023-03-13T17:49:11.636Z,95277.00
2023-03-13T17:51:38.403Z,95265.63
2023-03-13T17:54:05.867Z,95263.94
2023-03-13T17:56:39.462Z,95270.34
2023-03-13T17:59:12.138Z,95266.09
2023-03-13T18:01:38.829Z,95262.28
2023-03-13T18:04:05.606Z,95253.56
2023-03-13T18:06:43.063Z,95248.31
2023-03-13T18:09:21.982Z,95251.72
2023-03-13T18:11:49.140Z,95243.13
2023-03-13T18:14:15.628Z,95237.28
2023-03-13T18:16:50.494Z,95236.81
2023-03-13T18:19:25.975Z,95233.75
2023-03-13T18:21:54.669Z,95234.88
2023-03-13T18:24:22.184Z,95225.94
2023-03-13T18:26:49.619Z,95225.53
2023-03-13T18:29:20.208Z,95223.69
2023-03-13T18:31:48.177Z,95220.03
2023-03-13T18:34:15.172Z,95210.72
2023-03-13T18:36:42.253Z,95200.84
2023-03-13T18:39:14.441Z,95197.91
2023-03-13T18:41:40.965Z,95185.97
2023-03-13T18:44:14.476Z,95184.75
2023-03-13T18:46:43.789Z,95184.97
2023-03-13T18:49:17.170Z,95175.69
2023-03-13T18:51:44.333Z,95175.91
2023-03-13T18:54:12.810Z,95166.94
2023-03-13T18:56:39.967Z,95159.38
2023-03-13T18:59:15.587Z,95158.78
2023-03-13T19:01:49.411Z,95140.59
2023-03-13T19:04:16.377Z,95150.25
2023-03-13T19:06:42.978Z,95133.63
2023-03-13T19:09:43.169Z,95127.22
2023-03-13T19:12:11.931Z,95114.22
2023-03-13T19:14:38.440Z,95106.66
2023-03-13T19:17:07.137Z,95115.25
2023-03-13T19:19:35.444Z,95101.34
2023-03-13T19:22:03.875Z,95084.97
2023-03-13T19:24:30.323Z,95086.09
2023-03-13T19:26:59.939Z,95083.50
2023-03-13T19:29:28.232Z,95090.44
2023-03-13T19:31:55.261Z,95085.03
2023-03-13T19:34:22.877Z,95085.13
2023-03-13T19:36:49.857Z,95074.81
2023-03-13T19:39:19.815Z,95059.06
2023-03-13T19:41:49.170Z,95056.84
2023-03-13T19:44:17.959Z,95044.47
2023-03-13T19:46:46.600Z,95038.66
2023-03-13T19:49:19.654Z,95033.97
2023-03-13T19:51:47.332Z,95032.38
2023-03-13T19:54:14.646Z,95025.72
2023-03-13T19:56:43.782Z,95019.66
2023-03-13T19:59:23.614Z,95036.25
2023-03-13T20:01:50.620Z,95039.53
2023-03-13T20:04:17.176Z,95012.75
2023-03-13T20:06:44.493Z,95008.44
2023-03-13T20:09:17.507Z,95012.84
2023-03-13T20:11:45.330Z,95012.09
2023-03-13T20:14:12.545Z,95035.84
2023-03-13T20:16:48.992Z,95132.25
2023-03-13T20:19:23.548Z,95159.41
2023-03-13T20:21:50.095Z,95129.75
2023-03-13T20:24:17.884Z,95056.69
2023-03-13T20:26:44.536Z,95130.75
2023-03-13T20:29:13.051Z,95167.72
2023-03-13T20:31:39.836Z,95164.06
2023-03-13T20:34:06.348Z,95136.91
2023-03-13T20:36:33.003Z,95092.63
2023-03-13T20:38:59.925Z,95102.53
2023-03-13T20:41:31.111Z,95108.38
2023-03-13T20:43:59.742Z,95110.41
2023-03-13T20:46:26.960Z,95097.94
2023-03-13T20:48:53.619Z,95111.69
2023-03-13T20:51:20.129Z,95155.47
2023-03-13T20:53:46.837Z,95217.69
2023-03-13T20:56:13.732Z,95242.53
2023-03-13T20:58:40.307Z,95215.66
2023-03-13T21:01:08.109Z,95213.81
2023-03-13T21:03:35.863Z,95216.03
2023-03-13T21:06:14.294Z,95238.44
2023-03-13T21:08:41.686Z,95252.69
2023-03-13T21:11:16.444Z,95277.44
2023-03-13T21:13:43.128Z,95273.09
2023-03-13T21:16:10.329Z,95286.31
2023-03-13T21:18:37.450Z,95302.00
2023-03-13T21:21:06.544Z,95340.44
2023-03-13T21:23:33.496Z,95315.25
2023-03-13T21:26:05.224Z,95296.66
2023-03-13T21:28:32.894Z,95207.81
2023-03-13T21:31:06.984Z,95122.19
2023-03-13T21:33:33.473Z,95043.84
2023-03-13T21:36:00.121Z,95057.78
2023-03-13T21:38:26.844Z,95064.19
2023-03-13T21:40:53.303Z,95109.63
2023-03-13T21:43:19.813Z,95144.72
2023-03-13T21:45:46.276Z,95175.38
2023-03-13T21:48:12.795Z,95187.50
2023-03-13T21:50:40.376Z,95195.09
2023-03-13T21:53:06.835Z,95170.44
2023-03-13T21:55:35.333Z,95177.75
2023-03-13T21:58:07.604Z,95174.56
2023-03-13T22:00:45.206Z,95179.41
2023-03-13T22:03:12.161Z,95200.38
2023-03-13T22:05:43.713Z,95203.81
2023-03-13T22:08:11.391Z,95228.44
2023-03-13T22:10:38.402Z,95254.94
2023-03-13T22:13:06.688Z,95261.81
2023-03-13T22:15:33.754Z,95250.94
2023-03-13T22:18:00.365Z,95268.09
2023-03-13T22:20:27.484Z,95288.06
2023-03-13T22:22:53.947Z,95308.88
2023-03-13T22:25:20.529Z,95321.84
2023-03-13T22:27:49.210Z,95363.00
2023-03-13T22:30:17.021Z,95381.00
2023-03-13T22:32:43.592Z,95386.41
2023-03-13T22:35:10.286Z,95386.25
2023-03-13T22:37:36.827Z,95382.44
2023-03-13T22:40:04.173Z,95396.09
2023-03-13T22:42:30.699Z,95397.16
2023-03-13T22:44:57.485Z,95386.06
2023-03-13T22:47:25.847Z,95383.16
2023-03-13T22:49:53.498Z,95381.22
2023-03-13T22:52:20.130Z,95354.28
2023-03-13T22:54:46.829Z,95335.13
2023-03-13T22:57:13.404Z,95315.22
2023-03-13T22:59:39.948Z,95306.69
2023-03-13T23:02:07.390Z,95271.28
2023-03-13T23:04:33.818Z,95263.78
2023-03-13T23:07:00.237Z,95259.69
2023-03-13T23:09:26.948Z,95256.47
2023-03-13T23:11:53.390Z,95260.69
2023-03-13T23:14:20.877Z,95238.56
2023-03-13T23:16:47.542Z,95210.75
2023-03-13T23:19:14.149Z,95219.38
2023-03-13T23:21:40.837Z,95226.25
2023-03-13T23:24:07.782Z,95229.97
2023-03-13T23:26:34.322Z,95219.69
2023-03-13T23:29:00.756Z,95149.78
2023-03-13T23:31:27.280Z,95127.84
2023-03-13T23:33:53.771Z,95134.06
2023-03-13T23:36:20.241Z,95137.03
2023-03-13T23:38:51.844Z,95119.88
2023-03-13T23:41:19.184Z,95109.00
2023-03-13T23:43:45.713Z,95088.13
2023-03-13T23:46:21.398Z,95073.06
2023-03-13T23:48:48.011Z,95057.50
2023-03-13T23:51:14.607Z,95048.16
2023-03-13T23:53:42.615Z,95059.03
2023-03-13T23:56:15.421Z,95047.00
2023-03-13T23:58:42.361Z,95047.00
